sensor_id;sensor_type;location;lat;lon;timestamp;pressure;altitude;pressure_sealevel;temperature;humidity
10796;BME280;5450;42.994;23.372;2022-07-18T01:20:22;96910.00;;;13.61;100.00
10796;BME280;5450;42.994;23.372;2022-07-18T01:23:37;97005.47;;;13.89;100.00
10796;BME280;5450;42.994;23.372;2022-07-18T01:34:10;97060.16;;;13.81;100.00
10796;BME280;5450;42.994;23.372;2022-07-18T02:31:17;97090.59;;;13.44;100.00
10796;BME280;5450;42.994;23.372;2022-07-18T02:33:44;96833.22;;;11.73;100.00
10796;BME280;5450;42.994;23.372;2022-07-18T02:36:14;97114.34;;;13.52;100.00
10796;BME280;5450;42.994;23.372;2022-07-18T02:38:41;96862.41;;;12.03;100.00
10796;BME280;5450;42.994;23.372;2022-07-18T02:41:11;96961.91;;;12.74;100.00
10796;BME280;5450;42.994;23.372;2022-07-18T02:43:42;97141.38;;;13.54;100.00
10796;BME280;5450;42.994;23.372;2022-07-18T02:46:19;97108.06;;;13.61;100.00
10796;BME280;5450;42.994;23.372;2022-07-18T02:48:46;96842.88;;;11.64;100.00
10796;BME280;5450;42.994;23.372;2022-07-18T02:51:14;97117.97;;;13.59;100.00
10796;BME280;5450;42.994;23.372;2022-07-18T02:53:41;96924.34;;;12.32;100.00
10796;BME280;5450;42.994;23.372;2022-07-18T02:56:09;97012.69;;;12.76;100.00
10796;BME280;5450;42.994;23.372;2022-07-18T02:58:36;97134.47;;;13.61;100.00
10796;BME280;5450;42.994;23.372;2022-07-18T03:04:42;97118.94;;;13.34;100.00
10796;BME280;5450;42.994;23.372;2022-07-18T03:21:37;96779.69;;;11.56;100.00
10796;BME280;5450;42.994;23.372;2022-07-18T03:24:04;97071.63;;;13.25;100.00
10796;BME280;5450;42.994;23.372;2022-07-18T03:26:31;96876.09;;;11.65;100.00
10796;BME280;5450;42.994;23.372;2022-07-18T03:36:15;97063.44;;;12.78;100.00
10796;BME280;5450;42.994;23.372;2022-07-18T03:38:53;97181.94;;;13.13;100.00
10796;BME280;5450;42.994;23.372;2022-07-18T03:41:49;97134.44;;;13.05;100.00
10796;BME280;5450;42.994;23.372;2022-07-18T03:45:03;97171.38;;;13.05;100.00
10796;BME280;5450;42.994;23.372;2022-07-18T03:47:54;97210.91;;;12.97;100.00
10796;BME280;5450;42.994;23.372;2022-07-18T04:01:46;97143.84;;;12.66;100.00
10796;BME280;5450;42.994;23.372;2022-07-18T04:08:23;97142.91;;;12.75;100.00
10796;BME280;5450;42.994;23.372;2022-07-18T04:14:38;97183.09;;;12.69;100.00
10796;BME280;5450;42.994;23.372;2022-07-18T04:20:41;97142.56;;;12.78;100.00
10796;BME280;5450;42.994;23.372;2022-07-18T04:23:10;97048.88;;;12.00;100.00
10796;BME280;5450;42.994;23.372;2022-07-18T04:25:44;97140.47;;;12.89;100.00
10796;BME280;5450;42.994;23.372;2022-07-18T04:28:17;96860.50;;;10.96;100.00
10796;BME280;5450;42.994;23.372;2022-07-18T04:30:48;97134.16;;;12.82;100.00
10796;BME280;5450;42.994;23.372;2022-07-18T04:33:21;97130.41;;;12.93;100.00
10796;BME280;5450;42.994;23.372;2022-07-18T04:36:25;97139.25;;;12.76;100.00
10796;BME280;5450;42.994;23.372;2022-07-18T04:39:39;96969.09;;;11.40;100.00
10796;BME280;5450;42.994;23.372;2022-07-18T04:42:25;97164.94;;;12.66;100.00
10796;BME280;5450;42.994;23.372;2022-07-18T04:49:13;97132.81;;;12.62;100.00
10796;BME280;5450;42.994;23.372;2022-07-18T05:13:56;97134.47;;;14.79;100.00
10796;BME280;5450;42.994;23.372;2022-07-18T05:16:52;97131.34;;;15.06;100.00
10796;BME280;5450;42.994;23.372;2022-07-18T05:26:36;97120.13;;;15.27;100.00
10796;BME280;5450;42.994;23.372;2022-07-18T05:36:57;97136.72;;;16.04;100.00
10796;BME280;5450;42.994;23.372;2022-07-18T06:15:25;97130.50;;;18.73;85.11
10796;BME280;5450;42.994;23.372;2022-07-18T06:22:25;97033.75;;;18.46;82.03
10796;BME280;5450;42.994;23.372;2022-07-18T06:24:33;97059.13;;;19.16;79.84
10796;BME280;5450;42.994;23.372;2022-07-18T06:27:03;96950.63;;;18.44;76.03
10796;BME280;5450;42.994;23.372;2022-07-18T07:20:44;97104.19;;;24.15;43.32
10796;BME280;5450;42.994;23.372;2022-07-18T07:33:52;96942.47;;;24.25;42.75
10796;BME280;5450;42.994;23.372;2022-07-18T07:36:47;97060.16;;;25.19;38.94
10796;BME280;5450;42.994;23.372;2022-07-18T07:39:16;96922.41;;;24.16;40.93
10796;BME280;5450;42.994;23.372;2022-07-18T07:45:04;96870.69;;;24.08;38.10
10796;BME280;5450;42.994;23.372;2022-07-18T07:51:06;96930.38;;;24.67;42.10
10796;BME280;5450;42.994;23.372;2022-07-18T08:07:24;96958.06;;;25.74;37.83
10796;BME280;5450;42.994;23.372;2022-07-18T08:09:55;96985.31;;;25.61;35.86
10796;BME280;5450;42.994;23.372;2022-07-18T08:12:48;97045.69;;;25.98;38.93
10796;BME280;5450;42.994;23.372;2022-07-18T08:15:17;97048.16;;;26.16;39.10
10796;BME280;5450;42.994;23.372;2022-07-18T08:21:00;97018.56;;;26.04;36.89
10796;BME280;5450;42.994;23.372;2022-07-18T08:59:26;97043.19;;;27.38;35.42
10796;BME280;5450;42.994;23.372;2022-07-18T09:04:01;97057.91;;;27.52;36.57
10796;BME280;5450;42.994;23.372;2022-07-18T09:11:56;97068.72;;;27.52;38.47
10796;BME280;5450;42.994;23.372;2022-07-18T09:14:35;97028.00;;;27.58;38.22
10796;BME280;5450;42.994;23.372;2022-07-18T09:17:15;97038.25;;;27.56;40.18
10796;BME280;5450;42.994;23.372;2022-07-18T09:27:27;97027.81;;;27.70;39.51
10796;BME280;5450;42.994;23.372;2022-07-18T11:33:37;96884.13;;;27.68;46.13
10796;BME280;5450;42.994;23.372;2022-07-18T11:38:22;96725.53;;;26.28;47.13
10796;BME280;5450;42.994;23.372;2022-07-18T11:59:28;96705.03;;;26.27;46.32
10796;BME280;5450;42.994;23.372;2022-07-18T12:09:06;96665.31;;;25.86;48.53
10796;BME280;5450;42.994;23.372;2022-07-18T12:15:28;96935.97;;;27.65;49.25
10796;BME280;5450;42.994;23.372;2022-07-18T12:18:29;96932.09;;;27.51;48.33
10796;BME280;5450;42.994;23.372;2022-07-18T12:24:40;96859.41;;;26.76;50.58
10796;BME280;5450;42.994;23.372;2022-07-18T12:27:22;96830.09;;;26.58;47.76
10796;BME280;5450;42.994;23.372;2022-07-18T12:30:17;96935.00;;;27.13;48.68
10796;BME280;5450;42.994;23.372;2022-07-18T12:40:11;96799.09;;;26.28;52.25
10796;BME280;5450;42.994;23.372;2022-07-18T12:50:03;96918.72;;;27.02;50.74
10796;BME280;5450;42.994;23.372;2022-07-18T12:52:56;96922.97;;;26.98;51.42
10796;BME280;5450;42.994;23.372;2022-07-18T12:59:06;96946.13;;;26.89;51.48
10796;BME280;5450;42.994;23.372;2022-07-18T13:05:15;96885.84;;;26.52;53.82
10796;BME280;5450;42.994;23.372;2022-07-18T13:14:41;96844.06;;;26.06;53.92
10796;BME280;5450;42.994;23.372;2022-07-18T13:17:15;96763.13;;;25.70;51.85
10796;BME280;5450;42.994;23.372;2022-07-18T13:19:47;96808.94;;;26.18;52.76
10796;BME280;5450;42.994;23.372;2022-07-18T13:22:16;96621.09;;;24.85;54.32
10796;BME280;5450;42.994;23.372;2022-07-18T13:24:45;96930.94;;;26.83;52.57
10796;BME280;5450;42.994;23.372;2022-07-18T13:27:12;96900.13;;;26.74;51.06
10796;BME280;5450;42.994;23.372;2022-07-18T13:29:41;96786.31;;;25.71;55.05
10796;BME280;5450;42.994;23.372;2022-07-18T13:32:14;96916.03;;;26.54;52.39
10796;BME280;5450;42.994;23.372;2022-07-18T13:34:44;96907.50;;;26.62;51.86
10796;BME280;5450;42.994;23.372;2022-07-18T13:37:14;96882.66;;;26.33;52.63
10796;BME280;5450;42.994;23.372;2022-07-18T13:39:42;96848.81;;;25.99;52.14
10796;BME280;5450;42.994;23.372;2022-07-18T13:42:15;96903.41;;;26.33;51.22
10796;BME280;5450;42.994;23.372;2022-07-18T13:45:15;96895.25;;;26.28;52.49
10796;BME280;5450;42.994;23.372;2022-07-18T13:47:43;96811.28;;;25.66;52.35
10796;BME280;5450;42.994;23.372;2022-07-18T13:50:16;96889.56;;;26.24;51.91
10796;BME280;5450;42.994;23.372;2022-07-18T13:52:48;96881.91;;;26.16;51.28
10796;BME280;5450;42.994;23.372;2022-07-18T13:55:15;96802.44;;;25.71;51.07
10796;BME280;5450;42.994;23.372;2022-07-18T13:57:43;96896.84;;;26.24;52.63
10796;BME280;5450;42.994;23.372;2022-07-18T14:00:12;96810.75;;;25.69;52.63
10796;BME280;5450;42.994;23.372;2022-07-18T14:02:48;96899.84;;;26.27;51.04
10796;BME280;5450;42.994;23.372;2022-07-18T14:05:18;96577.72;;;24.22;51.42
10796;BME280;5450;42.994;23.372;2022-07-18T14:07:46;96828.66;;;25.58;52.07
10796;BME280;5450;42.994;23.372;2022-07-18T14:10:15;96644.69;;;24.45;51.07
10796;BME280;5450;42.994;23.372;2022-07-18T14:12:43;96712.66;;;24.78;51.13
10796;BME280;5450;42.994;23.372;2022-07-18T14:15:15;96881.06;;;26.11;53.56
10796;BME280;5450;42.994;23.372;2022-07-18T14:18:18;96879.41;;;26.10;52.36
10796;BME280;5450;42.994;23.372;2022-07-18T14:21:07;96906.50;;;26.03;51.99
10796;BME280;5450;42.994;23.372;2022-07-18T14:27:20;96599.03;;;24.12;52.59
10796;BME280;5450;42.994;23.372;2022-07-18T14:30:11;96591.19;;;23.93;52.17
10796;BME280;5450;42.994;23.372;2022-07-18T14:50:33;96900.97;;;25.72;53.30
10796;BME280;5450;42.994;23.372;2022-07-18T15:10:38;96860.22;;;25.63;51.97
10796;BME280;5450;42.994;23.372;2022-07-18T15:23:04;96858.19;;;25.53;51.06
10796;BME280;5450;42.994;23.372;2022-07-18T15:29:03;96851.03;;;25.09;51.93
10796;BME280;5450;42.994;23.372;2022-07-18T15:31:32;96856.56;;;25.36;54.44
10796;BME280;5450;42.994;23.372;2022-07-18T15:34:00;96859.50;;;25.34;53.73
10796;BME280;5450;42.994;23.372;2022-07-18T15:37:02;96848.72;;;25.34;53.26
10796;BME280;5450;42.994;23.372;2022-07-18T15:39:34;96856.34;;;25.04;55.40
10796;BME280;5450;42.994;23.372;2022-07-18T15:42:03;96866.94;;;25.27;53.83
10796;BME280;5450;42.994;23.372;2022-07-18T15:44:35;96597.50;;;23.54;54.32
10796;BME280;5450;42.994;23.372;2022-07-18T15:47:06;96885.44;;;25.07;55.92
10796;BME280;5450;42.994;23.372;2022-07-18T15:53:05;96650.72;;;23.46;55.57
10796;BME280;5450;42.994;23.372;2022-07-18T15:55:35;96845.56;;;24.71;56.68
10796;BME280;5450;42.994;23.372;2022-07-18T15:58:40;96851.78;;;24.88;53.25
10796;BME280;5450;42.994;23.372;2022-07-18T16:01:09;96600.78;;;23.28;54.00
10796;BME280;5450;42.994;23.372;2022-07-18T16:03:41;96585.81;;;23.04;53.96
10796;BME280;5450;42.994;23.372;2022-07-18T16:06:40;96852.38;;;24.62;54.36
10796;BME280;5450;42.994;23.372;2022-07-18T16:09:31;96850.84;;;24.66;53.63
10796;BME280;5450;42.994;23.372;2022-07-18T16:12:01;96624.97;;;23.05;53.59
10796;BME280;5450;42.994;23.372;2022-07-18T16:15:16;96848.41;;;24.64;53.51
10796;BME280;5450;42.994;23.372;2022-07-18T16:17:48;96876.63;;;24.67;54.00
10796;BME280;5450;42.994;23.372;2022-07-18T16:20:20;96853.41;;;24.61;55.50
10796;BME280;5450;42.994;23.372;2022-07-18T16:22:50;96711.81;;;23.55;56.73
10796;BME280;5450;42.994;23.372;2022-07-18T16:28:54;96891.25;;;24.43;55.76
10796;BME280;5450;42.994;23.372;2022-07-18T16:31:22;96844.09;;;24.35;55.46
10796;BME280;5450;42.994;23.372;2022-07-18T16:34:13;96851.69;;;24.38;55.62
10796;BME280;5450;42.994;23.372;2022-07-18T16:36:40;96871.53;;;24.37;55.27
10796;BME280;5450;42.994;23.372;2022-07-18T16:39:12;96718.59;;;23.46;55.19
10796;BME280;5450;42.994;23.372;2022-07-18T16:41:44;96822.44;;;24.25;55.16
10796;BME280;5450;42.994;23.372;2022-07-18T16:44:22;96814.31;;;24.08;54.59
10796;BME280;5450;42.994;23.372;2022-07-18T16:46:53;96761.16;;;23.82;55.45
10796;BME280;5450;42.994;23.372;2022-07-18T16:49:31;96775.19;;;23.84;55.98
10796;BME280;5450;42.994;23.372;2022-07-18T16:52:10;96778.31;;;23.53;56.00
10796;BME280;5450;42.994;23.372;2022-07-18T16:54:46;96641.09;;;22.70;58.12
10796;BME280;5450;42.994;23.372;2022-07-18T16:57:53;96846.75;;;24.19;56.84
10796;BME280;5450;42.994;23.372;2022-07-18T17:00:34;96581.03;;;22.31;58.36
10796;BME280;5450;42.994;23.372;2022-07-18T17:03:54;96733.81;;;23.06;59.64
10796;BME280;5450;42.994;23.372;2022-07-18T17:06:32;96846.13;;;23.88;60.95
10796;BME280;5450;42.994;23.372;2022-07-18T17:09:03;96854.50;;;23.80;59.33
10796;BME280;5450;42.994;23.372;2022-07-18T17:11:31;96779.94;;;23.31;60.42
10796;BME280;5450;42.994;23.372;2022-07-18T17:17:27;96692.72;;;22.77;63.82
10796;BME280;5450;42.994;23.372;2022-07-18T17:19:56;96653.91;;;22.33;64.19
10796;BME280;5450;42.994;23.372;2022-07-18T17:22:45;96858.66;;;23.71;64.38
10796;BME280;5450;42.994;23.372;2022-07-18T17:25:37;96629.00;;;21.98;64.62
10796;BME280;5450;42.994;23.372;2022-07-18T17:28:15;96855.38;;;23.58;64.97
10796;BME280;5450;42.994;23.372;2022-07-18T17:30:43;96814.22;;;23.29;64.04
10796;BME280;5450;42.994;23.372;2022-07-18T17:33:11;96767.03;;;22.93;66.84
10796;BME280;5450;42.994;23.372;2022-07-18T17:35:42;96873.00;;;23.42;68.83
10796;BME280;5450;42.994;23.372;2022-07-18T17:38:12;96854.09;;;23.25;68.98
10796;BME280;5450;42.994;23.372;2022-07-18T17:40:42;96883.00;;;23.12;71.09
10796;BME280;5450;42.994;23.372;2022-07-18T17:43:23;96877.84;;;22.99;71.95
10796;BME280;5450;42.994;23.372;2022-07-18T17:45:51;96847.75;;;22.74;71.71
10796;BME280;5450;42.994;23.372;2022-07-18T17:48:20;96896.13;;;22.90;71.98
10796;BME280;5450;42.994;23.372;2022-07-18T17:50:49;96839.03;;;22.48;73.27
10796;BME280;5450;42.994;23.372;2022-07-18T17:53:27;96900.13;;;22.40;76.41
10796;BME280;5450;42.994;23.372;2022-07-18T17:55:55;96903.22;;;22.25;76.69
10796;BME280;5450;42.994;23.372;2022-07-18T17:58:24;96888.97;;;22.13;77.88
10796;BME280;5450;42.994;23.372;2022-07-18T18:00:58;96892.53;;;21.71;81.63
10796;BME280;5450;42.994;23.372;2022-07-18T18:03:28;96895.19;;;21.53;84.45
10796;BME280;5450;42.994;23.372;2022-07-18T18:05:59;96887.81;;;21.30;84.73
10796;BME280;5450;42.994;23.372;2022-07-18T18:08:31;96898.09;;;21.08;86.56
10796;BME280;5450;42.994;23.372;2022-07-18T18:11:01;96912.38;;;20.89;87.71
10796;BME280;5450;42.994;23.372;2022-07-18T18:13:29;96898.69;;;20.79;87.81
10796;BME280;5450;42.994;23.372;2022-07-18T18:15:57;96903.97;;;20.61;89.58
10796;BME280;5450;42.994;23.372;2022-07-18T18:18:24;96908.38;;;20.42;90.73
10796;BME280;5450;42.994;23.372;2022-07-18T18:20:52;96907.03;;;20.27;90.91
10796;BME280;5450;42.994;23.372;2022-07-18T18:23:23;96851.38;;;19.80;91.43
10796;BME280;5450;42.994;23.372;2022-07-18T18:25:51;96880.06;;;19.91;90.42
10796;BME280;5450;42.994;23.372;2022-07-18T18:28:21;96912.25;;;20.02;92.77
10796;BME280;5450;42.994;23.372;2022-07-18T18:30:50;96921.44;;;20.06;91.29
10796;BME280;5450;42.994;23.372;2022-07-18T18:33:20;96920.50;;;19.88;93.00
10796;BME280;5450;42.994;23.372;2022-07-18T18:35:49;96921.34;;;19.68;94.11
10796;BME280;5450;42.994;23.372;2022-07-18T18:38:18;96897.03;;;19.39;94.44
10796;BME280;5450;42.994;23.372;2022-07-18T18:40:46;96922.66;;;19.46;95.81
10796;BME280;5450;42.994;23.372;2022-07-18T18:43:16;96928.16;;;19.51;94.59
10796;BME280;5450;42.994;23.372;2022-07-18T18:45:44;96934.75;;;19.49;94.76
10796;BME280;5450;42.994;23.372;2022-07-18T18:48:14;96945.41;;;19.55;95.87
10796;BME280;5450;42.994;23.372;2022-07-18T18:50:45;96767.63;;;18.46;92.89
10796;BME280;5450;42.994;23.372;2022-07-18T18:53:16;96970.22;;;19.36;95.49
10796;BME280;5450;42.994;23.372;2022-07-18T18:56:00;96990.88;;;19.15;96.96
10796;BME280;5450;42.994;23.372;2022-07-18T19:06:05;96994.56;;;18.94;99.04
10796;BME280;5450;42.994;23.372;2022-07-18T19:08:39;96816.47;;;17.52;100.00
10796;BME280;5450;42.994;23.372;2022-07-18T19:11:18;96899.38;;;18.23;100.00
10796;BME280;5450;42.994;23.372;2022-07-18T19:14:32;96665.38;;;16.76;99.26
10796;BME280;5450;42.994;23.372;2022-07-18T19:17:23;97021.13;;;18.68;100.00
10796;BME280;5450;42.994;23.372;2022-07-18T19:20:29;96999.56;;;18.50;100.00
10796;BME280;5450;42.994;23.372;2022-07-18T19:23:15;96999.44;;;18.30;100.00
10796;BME280;5450;42.994;23.372;2022-07-18T19:26:02;96982.91;;;18.35;100.00
10796;BME280;5450;42.994;23.372;2022-07-18T19:29:21;97015.31;;;18.45;100.00
10796;BME280;5450;42.994;23.372;2022-07-18T19:32:06;96997.66;;;18.44;100.00
10796;BME280;5450;42.994;23.372;2022-07-18T19:45:22;96991.47;;;17.89;100.00
10796;BME280;5450;42.994;23.372;2022-07-18T19:51:19;96835.06;;;16.84;100.00
10796;BME280;5450;42.994;23.372;2022-07-18T19:53:52;96675.75;;;15.87;100.00
10796;BME280;5450;42.994;23.372;2022-07-18T19:56:58;97000.16;;;17.70;100.00
10796;BME280;5450;42.994;23.372;2022-07-18T21:00:19;96918.59;;;16.45;100.00
10796;BME280;5450;42.994;23.372;2022-07-18T21:06:27;97026.06;;;17.13;100.00
10796;BME280;5450;42.994;23.372;2022-07-18T21:09:00;96884.97;;;16.31;100.00
10796;BME280;5450;42.994;23.372;2022-07-18T21:11:47;97044.75;;;16.84;100.00
10796;BME280;5450;42.994;23.372;2022-07-18T21:14:14;96768.94;;;15.19;100.00
10796;BME280;5450;42.994;23.372;2022-07-18T21:16:59;97021.22;;;16.81;100.00
10796;BME280;5450;42.994;23.372;2022-07-18T21:19:26;96975.59;;;16.71;100.00
10796;BME280;5450;42.994;23.372;2022-07-18T21:21:53;97022.59;;;16.91;100.00
10796;BME280;5450;42.994;23.372;2022-07-18T21:24:22;97022.47;;;16.63;100.00
10796;BME280;5450;42.994;23.372;2022-07-18T21:26:49;96972.06;;;16.28;100.00
10796;BME280;5450;42.994;23.372;2022-07-18T21:29:17;97010.66;;;16.66;100.00
10796;BME280;5450;42.994;23.372;2022-07-18T21:31:44;97015.28;;;16.79;100.00
10796;BME280;5450;42.994;23.372;2022-07-18T21:34:15;96836.53;;;15.66;100.00
10796;BME280;5450;42.994;23.372;2022-07-18T21:36:42;97016.81;;;16.37;100.00
10796;BME280;5450;42.994;23.372;2022-07-18T21:39:09;96851.81;;;15.35;100.00
10796;BME280;5450;42.994;23.372;2022-07-18T21:41:37;97023.63;;;16.54;100.00
10796;BME280;5450;42.994;23.372;2022-07-18T21:44:04;96917.47;;;15.83;100.00
10796;BME280;5450;42.994;23.372;2022-07-18T21:46:32;96995.53;;;16.31;100.00
10796;BME280;5450;42.994;23.372;2022-07-18T21:49:02;97031.28;;;16.49;100.00
10796;BME280;5450;42.994;23.372;2022-07-18T21:51:31;97021.31;;;16.51;100.00
10796;BME280;5450;42.994;23.372;2022-07-18T21:54:01;96870.72;;;15.61;100.00
10796;BME280;5450;42.994;23.372;2022-07-18T21:56:28;97023.22;;;16.57;100.00
10796;BME280;5450;42.994;23.372;2022-07-18T21:58:55;97045.88;;;16.75;100.00
10796;BME280;5450;42.994;23.372;2022-07-18T22:01:25;96781.53;;;15.17;100.00
10796;BME280;5450;42.994;23.372;2022-07-18T22:03:52;97065.97;;;16.84;100.00
10796;BME280;5450;42.994;23.372;2022-07-18T22:06:19;96911.94;;;15.99;100.00
10796;BME280;5450;42.994;23.372;2022-07-18T22:08:49;96728.78;;;15.01;100.00
10796;BME280;5450;42.994;23.372;2022-07-18T22:11:17;96802.97;;;15.23;100.00
10796;BME280;5450;42.994;23.372;2022-07-18T22:13:45;97048.59;;;17.02;100.00
10796;BME280;5450;42.994;23.372;2022-07-18T22:16:12;96750.81;;;14.87;100.00
10796;BME280;5450;42.994;23.372;2022-07-18T22:18:39;96753.91;;;14.76;100.00
10796;BME280;5450;42.994;23.372;2022-07-18T22:21:06;96977.63;;;16.18;100.00
10796;BME280;5450;42.994;23.372;2022-07-18T22:23:33;96906.22;;;15.96;100.00
10796;BME280;5450;42.994;23.372;2022-07-18T22:26:03;96881.69;;;15.58;100.00
10796;BME280;5450;42.994;23.372;2022-07-18T22:28:30;96920.94;;;15.98;100.00
10796;BME280;5450;42.994;23.372;2022-07-18T22:31:23;97087.09;;;16.12;100.00
10796;BME280;5450;42.994;23.372;2022-07-18T22:33:56;96989.66;;;15.56;100.00
10796;BME280;5450;42.994;23.372;2022-07-18T22:36:27;97106.38;;;16.21;100.00
10796;BME280;5450;42.994;23.372;2022-07-18T22:39:00;96850.59;;;14.93;100.00
10796;BME280;5450;42.994;23.372;2022-07-18T22:41:28;96866.22;;;15.03;100.00
10796;BME280;5450;42.994;23.372;2022-07-18T22:43:55;97047.13;;;16.28;100.00
10796;BME280;5450;42.994;23.372;2022-07-18T22:46:22;96827.16;;;14.90;100.00
10796;BME280;5450;42.994;23.372;2022-07-18T22:48:53;97031.09;;;16.36;100.00
10796;BME280;5450;42.994;23.372;2022-07-18T22:57:51;97088.28;;;16.10;100.00
10796;BME280;5450;42.994;23.372;2022-07-18T23:03:36;97028.00;;;15.60;100.00
10796;BME280;5450;42.994;23.372;2022-07-18T23:06:04;97061.41;;;15.98;100.00
10796;BME280;5450;42.994;23.372;2022-07-18T23:08:34;97076.66;;;15.96;100.00
10796;BME280;5450;42.994;23.372;2022-07-18T23:11:01;96953.91;;;15.37;100.00
10796;BME280;5450;42.994;23.372;2022-07-18T23:13:30;97060.22;;;16.15;100.00
10796;BME280;5450;42.994;23.372;2022-07-18T23:15:57;96858.25;;;14.88;100.00
10796;BME280;5450;42.994;23.372;2022-07-18T23:18:25;96703.91;;;14.15;100.00
10796;BME280;5450;42.994;23.372;2022-07-18T23:21:06;97042.56;;;16.37;100.00
10796;BME280;5450;42.994;23.372;2022-07-18T23:23:35;96731.53;;;14.35;100.00
10796;BME280;5450;42.994;23.372;2022-07-18T23:32:33;97037.97;;;16.45;100.00
10796;BME280;5450;42.994;23.372;2022-07-18T23:35:56;97039.53;;;16.25;100.00
10796;BME280;5450;42.994;23.372;2022-07-18T23:38:31;97035.34;;;16.16;100.00
10796;BME280;5450;42.994;23.372;2022-07-18T23:40:59;97085.81;;;16.23;100.00
10796;BME280;5450;42.994;23.372;2022-07-18T23:43:26;97034.69;;;16.29;100.00
10796;BME280;5450;42.994;23.372;2022-07-18T23:45:57;96956.47;;;15.60;100.00
10796;BME280;5450;42.994;23.372;2022-07-18T23:48:27;96755.34;;;14.64;100.00
10796;BME280;5450;42.994;23.372;2022-07-18T23:50:54;97068.34;;;16.43;100.00
10796;BME280;5450;42.994;23.372;2022-07-18T23:53:23;97049.22;;;16.47;100.00
10796;BME280;5450;42.994;23.372;2022-07-18T23:55:54;96914.03;;;15.68;100.00
10796;BME280;5450;42.994;23.372;2022-07-18T23:58:23;97055.19;;;16.35;100.00
